createdAt,value
2022-08-14T00:02:31.367Z,10.40
2022-08-14T00:05:00.294Z,11.30
2022-08-14T00:07:28.807Z,10.40
2022-08-14T00:10:49.411Z,10.20
2022-08-14T00:12:56.772Z,9.40
2022-08-14T00:15:43.587Z,10.50
2022-08-14T00:18:30.855Z,10.40
2022-08-14T00:21:11.140Z,10.70
2022-08-14T00:23:41.139Z,11.70
2022-08-14T00:26:23.050Z,10.70
2022-08-14T00:28:54.184Z,10.90
2022-08-14T00:31:35.100Z,10.20
2022-08-14T00:34:36.957Z,10.20
2022-08-14T00:37:00.468Z,10.10
2022-08-14T00:39:30.430Z,9.00
2022-08-14T00:41:59.018Z,9.90
2022-08-14T00:44:32.505Z,10.00
2022-08-14T00:47:10.581Z,10.60
2022-08-14T00:49:43.128Z,10.30
2022-08-14T00:52:17.871Z,10.70
2022-08-14T00:54:58.492Z,11.10
2022-08-14T00:57:32.122Z,11.10
2022-08-14T01:02:31.840Z,11.40
2022-08-14T01:05:07.815Z,11.80
2022-08-14T01:07:47.188Z,12.50
2022-08-14T01:10:22.542Z,13.60
2022-08-14T01:12:51.938Z,12.10
2022-08-14T01:15:31.526Z,10.20
2022-08-14T01:18:30.873Z,10.60
2022-08-14T01:21:03.802Z,11.20
2022-08-14T01:23:41.924Z,11.70
2022-08-14T01:26:23.364Z,12.60
2022-08-14T01:29:05.966Z,11.40
2022-08-14T01:31:50.271Z,11.00
2022-08-14T01:35:17.243Z,11.00
2022-08-14T01:37:10.875Z,12.90
2022-08-14T01:39:39.909Z,12.50
2022-08-14T01:42:09.170Z,12.00
2022-08-14T01:44:58.775Z,12.00
2022-08-14T01:47:37.074Z,12.30
2022-08-14T01:50:09.227Z,11.10
2022-08-14T01:52:58.613Z,11.00
2022-08-14T01:55:32.528Z,11.70
2022-08-14T01:58:18.673Z,11.70
2022-08-14T02:00:55.404Z,13.00
2022-08-14T02:03:31.100Z,11.70
2022-08-14T02:06:03.898Z,12.40
2022-08-14T02:08:53.300Z,12.40
2022-08-14T02:14:09.247Z,11.60
2022-08-14T02:16:48.344Z,13.40
2022-08-14T02:19:25.873Z,12.50
2022-08-14T02:22:02.874Z,11.20
2022-08-14T02:24:40.439Z,12.50
2022-08-14T02:28:24.170Z,12.60
2022-08-14T02:30:02.852Z,12.10
2022-08-14T02:32:36.806Z,12.70
2022-08-14T02:35:13.966Z,12.80
2022-08-14T02:37:48.459Z,12.20
2022-08-14T02:40:19.530Z,11.40
2022-08-14T02:42:54.739Z,11.80
2022-08-14T02:45:33.279Z,12.90
2022-08-14T02:48:10.215Z,12.90
2022-08-14T02:50:40.203Z,12.50
2022-08-14T02:53:11.697Z,11.90
2022-08-14T02:55:44.166Z,12.20
2022-08-14T02:58:12.583Z,12.90
2022-08-14T03:00:58.436Z,12.80
2022-08-14T03:03:27.731Z,12.80
2022-08-14T03:06:00.685Z,11.90
2022-08-14T03:08:32.281Z,11.70
2022-08-14T03:11:02.760Z,13.00
2022-08-14T03:13:32.837Z,12.80
2022-08-14T03:16:01.812Z,12.70
2022-08-14T03:18:45.115Z,13.40
2022-08-14T03:21:18.973Z,13.30
2022-08-14T03:23:51.156Z,15.10
2022-08-14T03:26:30.371Z,14.90
2022-08-14T03:29:01.156Z,12.00
2022-08-14T03:31:30.564Z,12.20
2022-08-14T03:33:59.828Z,13.10
2022-08-14T03:37:37.371Z,13.30
2022-08-14T03:39:22.486Z,12.90
2022-08-14T03:42:00.004Z,12.80
2022-08-14T03:45:18.800Z,12.20
2022-08-14T03:47:20.893Z,11.90
2022-08-14T03:49:50.238Z,12.40
2022-08-14T03:52:38.368Z,10.90
2022-08-14T03:55:12.571Z,12.30
2022-08-14T03:57:42.656Z,12.20
2022-08-14T04:00:40.644Z,12.50
2022-08-14T04:03:07.801Z,12.50
2022-08-14T04:05:43.353Z,14.20
2022-08-14T04:08:29.001Z,13.30
2022-08-14T04:11:01.031Z,13.30
2022-08-14T04:13:34.488Z,13.50
2022-08-14T04:16:06.839Z,13.00
2022-08-14T04:18:43.763Z,12.70
2022-08-14T04:21:14.923Z,12.30
2022-08-14T04:23:56.915Z,12.90
2022-08-14T04:26:43.110Z,12.30
2022-08-14T04:29:16.112Z,13.90
2022-08-14T04:32:58.174Z,13.80
2022-08-14T04:34:41.822Z,12.20
2022-08-14T04:37:29.170Z,12.50
2022-08-14T04:40:15.882Z,12.40
2022-08-14T04:43:02.482Z,13.00
2022-08-14T04:45:36.489Z,12.80
2022-08-14T04:51:06.513Z,11.30
2022-08-14T04:53:41.084Z,11.50
2022-08-14T04:56:31.353Z,11.00
2022-08-14T04:59:10.195Z,12.30
2022-08-14T05:01:48.749Z,11.70
2022-08-14T05:04:23.000Z,12.40
2022-08-14T05:06:55.097Z,12.20
2022-08-14T05:09:29.040Z,11.90
2022-08-14T05:13:10.481Z,12.70
2022-08-14T05:14:54.623Z,12.40
2022-08-14T05:17:32.033Z,12.00
2022-08-14T05:21:04.333Z,13.10
2022-08-14T05:23:03.657Z,11.60
2022-08-14T05:25:33.688Z,11.90
2022-08-14T05:28:19.025Z,11.50
2022-08-14T05:31:01.923Z,12.30
2022-08-14T05:33:34.807Z,12.40
2022-08-14T05:36:16.897Z,12.10
2022-08-14T05:38:47.787Z,12.10
2022-08-14T05:41:19.323Z,11.30
2022-08-14T05:43:48.772Z,11.10
2022-08-14T05:46:23.071Z,11.60
2022-08-14T05:48:57.291Z,11.70
2022-08-14T05:51:28.924Z,12.50
2022-08-14T05:54:11.327Z,11.80
2022-08-14T05:56:41.933Z,12.00
2022-08-14T05:59:11.331Z,13.30
2022-08-14T06:01:39.811Z,13.70
2022-08-14T06:04:08.294Z,12.50
2022-08-14T06:06:38.492Z,11.30
2022-08-14T06:09:10.004Z,13.70
2022-08-14T06:11:38.733Z,12.10
2022-08-14T06:14:21.169Z,13.30
2022-08-14T06:16:53.228Z,12.50
2022-08-14T06:19:23.213Z,13.00
2022-08-14T06:21:59.202Z,13.60
2022-08-14T06:24:30.789Z,13.50
2022-08-14T06:27:06.220Z,12.50
2022-08-14T06:29:39.497Z,12.80
2022-08-14T06:32:37.502Z,10.70
2022-08-14T06:35:04.466Z,12.90
2022-08-14T06:37:52.493Z,12.60
2022-08-14T06:40:26.160Z,13.20
2022-08-14T06:43:06.905Z,11.50
2022-08-14T06:45:38.633Z,12.30
2022-08-14T06:48:33.325Z,12.60
2022-08-14T06:51:04.029Z,11.40
2022-08-14T06:53:33.894Z,12.70
2022-08-14T06:56:02.605Z,10.60
2022-08-14T06:58:32.935Z,13.90
2022-08-14T07:01:27.000Z,12.30
2022-08-14T07:04:23.769Z,12.30
2022-08-14T07:06:55.566Z,10.90
2022-08-14T07:09:43.923Z,12.30
2022-08-14T07:12:56.213Z,12.20
2022-08-14T07:15:07.747Z,11.10
2022-08-14T07:17:52.163Z,12.60
2022-08-14T07:20:30.821Z,11.30
2022-08-14T07:23:08.390Z,10.10
2022-08-14T07:25:40.121Z,10.80
2022-08-14T07:28:20.891Z,10.80
2022-08-14T07:30:52.437Z,12.40
2022-08-14T07:33:24.821Z,11.80
2022-08-14T07:36:26.482Z,10.00
2022-08-14T07:38:53.286Z,10.40
2022-08-14T07:41:21.730Z,10.30
2022-08-14T07:43:55.767Z,9.90
2022-08-14T07:46:28.612Z,11.10
2022-08-14T07:48:58.996Z,10.00
2022-08-14T07:51:34.365Z,10.30
2022-08-14T07:54:11.164Z,13.10
2022-08-14T07:56:47.338Z,10.90
2022-08-14T07:59:18.774Z,8.80
2022-08-14T08:01:48.184Z,12.30
2022-08-14T08:04:27.132Z,12.30
2022-08-14T08:06:56.239Z,11.70
2022-08-14T08:09:32.157Z,12.30
2022-08-14T08:12:09.396Z,12.70
2022-08-14T08:14:56.470Z,13.30
2022-08-14T08:17:34.811Z,11.40
2022-08-14T08:20:11.504Z,11.10
2022-08-14T08:22:48.056Z,10.70
2022-08-14T08:25:19.317Z,11.40
2022-08-14T08:27:58.411Z,11.80
2022-08-14T08:30:29.077Z,12.10
2022-08-14T08:33:01.430Z,12.20
2022-08-14T08:35:46.875Z,10.70
2022-08-14T08:39:16.568Z,11.70
2022-08-14T08:41:12.962Z,10.90
2022-08-14T08:43:46.932Z,11.40
2022-08-14T08:46:23.546Z,12.60
2022-08-14T08:52:04.634Z,11.70
2022-08-14T08:54:33.301Z,11.80
2022-08-14T08:57:04.053Z,12.50
2022-08-14T09:02:10.804Z,11.20
2022-08-14T09:04:45.516Z,10.50
2022-08-14T09:07:28.673Z,11.30
2022-08-14T09:09:59.172Z,11.40
2022-08-14T09:12:31.481Z,10.90
2022-08-14T09:15:11.478Z,10.90
2022-08-14T09:17:44.197Z,10.80
2022-08-14T09:22:59.787Z,10.60
2022-08-14T09:26:01.477Z,11.80
2022-08-14T09:28:20.234Z,10.40
2022-08-14T09:30:56.141Z,10.70
2022-08-14T09:34:01.631Z,11.20
2022-08-14T09:37:03.534Z,10.80
2022-08-14T09:39:54.832Z,10.70
2022-08-14T09:42:35.216Z,11.20
2022-08-14T09:45:53.012Z,9.70
2022-08-14T09:48:27.449Z,11.60
2022-08-14T09:54:17.790Z,10.60
2022-08-14T09:56:56.659Z,9.80
2022-08-14T09:59:28.259Z,11.00
2022-08-14T10:02:01.343Z,10.50
2022-08-14T10:04:33.890Z,10.80
2022-08-14T10:07:08.546Z,11.00
2022-08-14T10:09:57.679Z,10.40
2022-08-14T10:12:52.880Z,10.10
2022-08-14T10:15:27.839Z,10.10
2022-08-14T10:18:18.456Z,9.00
2022-08-14T10:21:00.965Z,8.60
2022-08-14T10:23:43.161Z,8.70
2022-08-14T10:26:22.468Z,8.40
2022-08-14T10:29:18.541Z,10.00
2022-08-14T10:31:59.459Z,9.30
2022-08-14T10:34:42.091Z,11.20
2022-08-14T10:37:17.253Z,10.60
2022-08-14T10:40:10.365Z,11.00
2022-08-14T10:42:51.938Z,11.30
2022-08-14T10:45:34.033Z,11.00
2022-08-14T10:48:24.544Z,10.60
2022-08-14T10:51:08.504Z,10.80
2022-08-14T10:53:39.319Z,10.50
2022-08-14T10:56:21.656Z,10.90
2022-08-14T10:59:08.803Z,10.40
2022-08-14T11:01:41.549Z,9.00
2022-08-14T11:04:30.748Z,10.40
2022-08-14T11:06:59.555Z,9.70
2022-08-14T11:09:31.729Z,10.50
2022-08-14T11:12:33.845Z,10.50
2022-08-14T11:14:59.580Z,10.20
2022-08-14T11:17:37.824Z,9.00
2022-08-14T11:20:13.977Z,9.10
2022-08-14T11:23:03.017Z,9.00
2022-08-14T11:25:43.895Z,8.80
2022-08-14T11:28:18.965Z,9.20
2022-08-14T11:30:53.801Z,9.40
2022-08-14T11:33:25.503Z,9.40
2022-08-14T11:35:59.544Z,9.30
2022-08-14T11:38:46.017Z,8.20
2022-08-14T11:41:17.238Z,9.70
2022-08-14T11:43:55.926Z,9.10
2022-08-14T11:46:30.330Z,8.90
2022-08-14T11:49:06.788Z,8.70
2022-08-14T11:51:53.053Z,8.90
2022-08-14T11:54:33.731Z,8.80
2022-08-14T11:57:05.854Z,9.10
2022-08-14T11:59:34.278Z,9.30
2022-08-14T12:03:00.214Z,8.80
2022-08-14T12:07:51.483Z,8.10
2022-08-14T12:10:26.750Z,8.70
2022-08-14T12:13:17.818Z,5.20
2022-08-14T12:16:01.097Z,3.60
2022-08-14T12:18:42.750Z,3.30
2022-08-14T12:21:19.256Z,3.90
2022-08-14T12:24:05.696Z,4.00
2022-08-14T12:26:40.942Z,4.00
2022-08-14T12:29:16.723Z,4.30
2022-08-14T12:31:46.930Z,5.20
2022-08-14T12:34:20.297Z,4.90
2022-08-14T12:36:49.385Z,5.70
2022-08-14T12:39:23.803Z,4.90
2022-08-14T12:42:01.565Z,5.10
2022-08-14T12:44:39.101Z,5.60
2022-08-14T12:47:17.196Z,9.00
2022-08-14T12:49:54.334Z,10.30
2022-08-14T12:52:43.177Z,12.10
2022-08-14T12:55:21.611Z,15.40
2022-08-14T12:57:53.415Z,17.10
2022-08-14T13:00:25.605Z,17.40
2022-08-14T13:02:56.869Z,19.30
2022-08-14T13:05:30.313Z,20.10
2022-08-14T13:08:03.850Z,15.90
2022-08-14T13:10:51.113Z,17.60
2022-08-14T13:13:21.337Z,19.60
2022-08-14T13:15:57.176Z,20.60
2022-08-14T13:18:30.154Z,19.70
2022-08-14T13:23:38.930Z,22.10
2022-08-14T13:26:07.659Z,21.60
2022-08-14T13:29:01.489Z,20.50
2022-08-14T13:31:32.476Z,21.50
2022-08-14T13:34:04.568Z,22.80
2022-08-14T13:36:51.533Z,20.90
2022-08-14T13:39:26.482Z,25.10
2022-08-14T13:41:56.155Z,24.50
2022-08-14T13:44:27.832Z,21.30
2022-08-14T13:46:58.190Z,23.00
2022-08-14T13:49:29.269Z,17.70
2022-08-14T13:51:59.115Z,25.50
2022-08-14T13:54:31.383Z,23.20
2022-08-14T13:57:03.869Z,21.80
2022-08-14T13:59:37.689Z,22.20
2022-08-14T14:02:08.618Z,25.50
2022-08-14T14:04:49.381Z,20.10
2022-08-14T14:07:23.414Z,15.50
2022-08-14T14:09:56.593Z,13.70
2022-08-14T14:12:49.103Z,12.80
2022-08-14T14:15:20.199Z,11.30
2022-08-14T14:17:59.715Z,11.30
2022-08-14T14:20:35.489Z,12.10
2022-08-14T14:23:11.776Z,12.80
2022-08-14T14:25:51.079Z,14.20
2022-08-14T14:28:32.215Z,16.70
2022-08-14T14:31:05.980Z,17.00
2022-08-14T14:33:51.891Z,16.70
2022-08-14T14:36:26.783Z,12.70
2022-08-14T14:39:02.403Z,11.60
2022-08-14T14:41:37.699Z,10.80
2022-08-14T14:44:16.028Z,13.20
2022-08-14T14:46:50.953Z,11.50
2022-08-14T14:49:31.942Z,14.40
2022-08-14T14:52:23.154Z,11.50
2022-08-14T14:54:52.865Z,10.50
2022-08-14T14:57:21.499Z,10.40
2022-08-14T14:59:50.002Z,12.30
2022-08-14T15:02:36.911Z,11.80
2022-08-14T15:05:08.268Z,14.10
2022-08-14T15:07:37.998Z,15.90
2022-08-14T15:10:27.394Z,16.10
2022-08-14T15:13:00.175Z,14.60
2022-08-14T15:15:28.821Z,14.20
2022-08-14T15:18:01.781Z,13.40
2022-08-14T15:20:31.497Z,14.70
2022-08-14T15:23:11.669Z,15.70
2022-08-14T15:25:44.006Z,15.70
2022-08-14T15:28:21.858Z,16.30
2022-08-14T15:30:58.978Z,15.30
2022-08-14T15:34:01.004Z,15.30
2022-08-14T15:36:36.075Z,15.40
2022-08-14T15:39:05.462Z,15.90
2022-08-14T15:41:41.907Z,16.80
2022-08-14T15:44:25.486Z,13.90
2022-08-14T15:46:58.328Z,12.70
2022-08-14T15:49:34.678Z,12.50
2022-08-14T15:52:05.279Z,10.40
2022-08-14T15:54:36.748Z,9.80
2022-08-14T15:57:10.312Z,6.70
2022-08-14T15:59:58.690Z,7.70
2022-08-14T16:02:28.108Z,8.50
2022-08-14T16:04:56.848Z,8.90
2022-08-14T16:07:27.263Z,9.90
2022-08-14T16:10:27.226Z,10.10
2022-08-14T16:12:47.868Z,12.00
2022-08-14T16:15:17.216Z,10.80
2022-08-14T16:17:46.818Z,13.40
2022-08-14T16:20:41.611Z,14.50
2022-08-14T16:23:08.735Z,16.50
2022-08-14T16:25:44.102Z,14.60
2022-08-14T16:28:13.483Z,14.70
2022-08-14T16:30:56.387Z,15.20
2022-08-14T16:33:56.859Z,16.50
2022-08-14T16:36:31.412Z,16.30
2022-08-14T16:39:03.503Z,16.40
2022-08-14T16:41:32.007Z,16.60
2022-08-14T16:44:22.156Z,16.60
2022-08-14T16:47:05.486Z,17.80
2022-08-14T16:50:03.283Z,16.70
2022-08-14T16:52:25.963Z,17.90
2022-08-14T16:55:14.281Z,18.10
2022-08-14T16:57:51.507Z,19.20
2022-08-14T17:00:43.892Z,18.90
2022-08-14T17:03:13.712Z,18.30
2022-08-14T17:05:46.898Z,18.80
2022-08-14T17:08:33.502Z,20.60
2022-08-14T17:11:10.281Z,18.80
2022-08-14T17:13:58.488Z,19.10
2022-08-14T17:16:37.873Z,21.30
2022-08-14T17:19:13.580Z,16.40
2022-08-14T17:21:46.867Z,16.00
2022-08-14T17:24:56.537Z,16.50
2022-08-14T17:27:10.256Z,15.30
2022-08-14T17:29:44.469Z,14.80
2022-08-14T17:32:29.902Z,16.00
2022-08-14T17:35:16.381Z,15.60
2022-08-14T17:37:56.006Z,16.00
2022-08-14T17:40:31.231Z,17.10
2022-08-14T17:43:01.848Z,17.50
2022-08-14T17:45:41.489Z,19.70
2022-08-14T17:49:09.879Z,20.40
2022-08-14T17:51:24.196Z,23.10
2022-08-14T17:54:02.777Z,21.10
2022-08-14T17:56:33.964Z,18.70
2022-08-14T17:59:05.805Z,22.30
2022-08-14T18:01:46.084Z,21.80
2022-08-14T18:04:24.860Z,20.40
2022-08-14T18:07:09.941Z,20.10
2022-08-14T18:09:57.439Z,22.90
2022-08-14T18:12:36.968Z,21.80
2022-08-14T18:15:19.205Z,21.20
2022-08-14T18:17:53.051Z,20.90
2022-08-14T18:21:24.841Z,22.80
2022-08-14T18:23:14.697Z,19.70
2022-08-14T18:25:53.241Z,21.70
2022-08-14T18:28:51.022Z,19.10
2022-08-14T18:31:23.255Z,20.60
2022-08-14T18:33:58.366Z,22.90
2022-08-14T18:36:57.668Z,19.60
2022-08-14T18:40:01.957Z,23.10
2022-08-14T18:42:30.277Z,20.20
2022-08-14T18:45:00.963Z,22.80
2022-08-14T18:47:56.552Z,25.00
2022-08-14T18:50:31.106Z,24.50
2022-08-14T18:53:08.995Z,22.20
2022-08-14T18:55:53.389Z,23.70
2022-08-14T18:58:47.877Z,24.50
2022-08-14T19:01:33.420Z,23.00
2022-08-14T19:04:04.067Z,24.80
2022-08-14T19:06:55.906Z,24.50
2022-08-14T19:09:56.263Z,25.00
2022-08-14T19:12:53.871Z,24.40
2022-08-14T19:15:31.541Z,24.80
2022-08-14T19:18:13.953Z,25.60
2022-08-14T19:23:42.036Z,26.90
2022-08-14T19:26:54.267Z,24.80
2022-08-14T19:29:25.928Z,24.90
2022-08-14T19:31:59.510Z,22.70
2022-08-14T19:34:52.732Z,24.00
2022-08-14T19:37:54.101Z,23.40
2022-08-14T19:40:34.082Z,22.50
2022-08-14T19:43:06.373Z,27.30
2022-08-14T19:45:36.153Z,25.20
2022-08-14T19:48:14.290Z,26.10
2022-08-14T19:50:46.457Z,27.50
2022-08-14T19:53:17.061Z,28.30
2022-08-14T19:56:02.437Z,26.80
2022-08-14T19:58:55.426Z,25.90
2022-08-14T20:01:36.431Z,28.90
2022-08-14T20:04:45.477Z,28.10
2022-08-14T20:07:04.230Z,25.70
2022-08-14T20:11:03.671Z,27.90
2022-08-14T20:12:35.552Z,26.90
2022-08-14T20:15:46.739Z,28.50
2022-08-14T20:18:49.091Z,24.00
2022-08-14T20:21:16.070Z,25.70
2022-08-14T20:23:48.270Z,23.90
2022-08-14T20:26:32.050Z,27.50
2022-08-14T20:29:06.998Z,28.20
2022-08-14T20:31:38.450Z,27.70
2022-08-14T20:34:24.456Z,28.40
2022-08-14T20:37:04.481Z,27.50
2022-08-14T20:39:37.582Z,27.30
2022-08-14T20:42:31.337Z,28.70
2022-08-14T20:45:24.229Z,28.40
2022-08-14T20:48:02.701Z,28.60
2022-08-14T20:50:36.922Z,29.70
2022-08-14T20:53:27.583Z,29.80
2022-08-14T20:56:00.536Z,31.00
2022-08-14T20:58:38.803Z,27.90
2022-08-14T21:01:32.675Z,27.70
2022-08-14T21:04:04.957Z,27.00
2022-08-14T21:07:22.969Z,28.30
2022-08-14T21:09:43.835Z,26.10
2022-08-14T21:12:34.324Z,25.30
2022-08-14T21:15:11.288Z,25.70
2022-08-14T21:17:43.390Z,29.00
2022-08-14T21:20:26.304Z,31.10
2022-08-14T21:23:00.404Z,31.70
2022-08-14T21:25:32.189Z,33.20
2022-08-14T21:28:08.811Z,34.30
2022-08-14T21:30:57.752Z,33.40
2022-08-14T21:33:26.352Z,34.60
2022-08-14T21:36:00.109Z,35.00
2022-08-14T21:38:38.700Z,35.10
2022-08-14T21:41:42.534Z,36.70
2022-08-14T21:44:17.150Z,35.70
2022-08-14T21:46:54.764Z,35.50
2022-08-14T21:49:33.777Z,36.40
2022-08-14T21:52:50.980Z,38.30
2022-08-14T21:55:09.471Z,35.20
2022-08-14T21:58:46.214Z,34.20
2022-08-14T22:00:42.539Z,33.20
2022-08-14T22:03:24.249Z,34.60
2022-08-14T22:05:56.166Z,33.70
2022-08-14T22:08:26.858Z,33.50
2022-08-14T22:10:56.579Z,33.40
2022-08-14T22:13:26.964Z,33.90
2022-08-14T22:16:02.314Z,33.30
2022-08-14T22:18:31.347Z,30.40
2022-08-14T22:21:05.956Z,27.60
2022-08-14T22:23:36.634Z,23.50
2022-08-14T22:26:06.940Z,21.30
2022-08-14T22:28:35.655Z,19.20
2022-08-14T22:31:10.883Z,20.00
2022-08-14T22:33:40.407Z,22.20
2022-08-14T22:36:34.236Z,24.20
2022-08-14T22:39:11.038Z,21.90
2022-08-14T22:41:42.412Z,28.00
2022-08-14T22:44:21.678Z,28.00
2022-08-14T22:46:51.335Z,27.30
2022-08-14T22:50:32.770Z,26.80
2022-08-14T22:52:31.719Z,28.10
2022-08-14T22:55:05.805Z,28.90
2022-08-14T22:57:37.794Z,27.00
2022-08-14T23:00:25.613Z,27.90
2022-08-14T23:03:03.002Z,26.40
2022-08-14T23:05:38.844Z,26.20
2022-08-14T23:09:01.517Z,26.70
2022-08-14T23:11:03.021Z,29.40
2022-08-14T23:13:33.097Z,27.00
2022-08-14T23:16:01.603Z,25.90
2022-08-14T23:18:30.616Z,26.10
2022-08-14T23:20:58.946Z,27.80
2022-08-14T23:23:27.866Z,23.40
2022-08-14T23:26:00.145Z,23.90
2022-08-14T23:28:56.602Z,21.20
2022-08-14T23:31:35.673Z,23.10
2022-08-14T23:34:12.219Z,23.90
2022-08-14T23:36:55.702Z,21.10
2022-08-14T23:39:34.603Z,22.40
2022-08-14T23:42:08.818Z,26.10
2022-08-14T23:47:11.880Z,31.00
2022-08-14T23:50:01.400Z,28.70
2022-08-14T23:52:55.680Z,33.60
2022-08-14T23:55:32.557Z,30.70
2022-08-14T23:58:01.014Z,31.50
